Аэропорт: Ульяновск-Восточный. Ульяновск

ICAO: UWLW

METAR:
2022-01-28 08:00:00
UWLW 280800Z 16004MPS CAVOK M09/M10 Q1018 R20/820548 NOSIG RMK QFE758
METAR:
2022-01-28 04:53:00
TAF UWLW 280453Z 2806/2906 15003MPS 6000 -SN BKN016 TXM06/2810Z TNM09/2806Z TEMPO 2806/2818 3100 -SN BR BKN011